createdAt,value
2023-04-25T00:00:53.455Z,100320.06
2023-04-25T00:03:20.313Z,100246.06
2023-04-25T00:05:46.953Z,100356.13
2023-04-25T00:08:13.396Z,100192.63
2023-04-25T00:10:39.796Z,100221.81
2023-04-25T00:13:07.187Z,100249.41
2023-04-25T00:15:33.604Z,100350.97
2023-04-25T00:18:00.036Z,100339.38
2023-04-25T00:20:26.419Z,100228.03
2023-04-25T00:22:54.294Z,100266.91
2023-04-25T00:25:20.756Z,100277.44
2023-04-25T00:27:47.057Z,100349.69
2023-04-25T00:30:14.004Z,100333.88
2023-04-25T00:32:40.584Z,100358.28
2023-04-25T00:35:07.281Z,100291.78
2023-04-25T00:37:33.700Z,100343.13
2023-04-25T00:40:00.177Z,100342.25
2023-04-25T00:42:26.558Z,100345.53
2023-04-25T00:44:54.067Z,100385.72
2023-04-25T00:47:20.675Z,100276.84
2023-04-25T00:49:47.255Z,100342.91
2023-04-25T00:52:13.797Z,100346.97
2023-04-25T00:54:40.565Z,100366.84
2023-04-25T00:57:07.014Z,100354.56
2023-04-25T00:59:34.475Z,100365.34
2023-04-25T01:02:01.422Z,100326.00
2023-04-25T01:04:28.707Z,100330.03
2023-04-25T01:06:55.314Z,100382.56
2023-04-25T01:09:23.069Z,100345.47
2023-04-25T01:11:50.371Z,100354.13
2023-04-25T01:14:17.309Z,100338.91
2023-04-25T01:16:43.801Z,100379.63
2023-04-25T01:19:14.150Z,100358.63
2023-04-25T01:21:40.838Z,100363.00
2023-04-25T01:24:07.714Z,100253.84
2023-04-25T01:26:34.819Z,100350.16
2023-04-25T01:29:01.638Z,100260.03
2023-04-25T01:31:29.112Z,100270.34
2023-04-25T01:33:55.591Z,100339.16
2023-04-25T01:36:23.006Z,100330.56
2023-04-25T01:38:50.042Z,100257.53
2023-04-25T01:41:17.909Z,100352.97
2023-04-25T01:43:45.399Z,100354.91
2023-04-25T01:46:12.877Z,100274.03
2023-04-25T01:48:39.497Z,100335.06
2023-04-25T01:51:05.982Z,100344.47
2023-04-25T01:53:32.699Z,100396.13
2023-04-25T01:55:59.150Z,100356.72
2023-04-25T01:58:25.522Z,100255.41
2023-04-25T02:00:51.879Z,100355.16
2023-04-25T02:03:18.396Z,100370.63
2023-04-25T02:05:44.911Z,100372.41
2023-04-25T02:08:11.298Z,100325.91
2023-04-25T02:10:37.933Z,100404.94
2023-04-25T02:13:06.149Z,100411.06
2023-04-25T02:15:32.980Z,100374.91
2023-04-25T02:18:00.984Z,100358.50
2023-04-25T02:20:28.690Z,100360.22
2023-04-25T02:22:55.291Z,100377.63
2023-04-25T02:25:21.851Z,100388.84
2023-04-25T02:27:49.138Z,100393.13
2023-04-25T02:30:16.338Z,100381.03
2023-04-25T02:32:42.781Z,100354.22
2023-04-25T02:35:09.702Z,100349.06
2023-04-25T02:37:37.283Z,100405.75
2023-04-25T02:40:05.066Z,100416.44
2023-04-25T02:42:31.727Z,100412.03
2023-04-25T02:44:58.121Z,100403.50
2023-04-25T02:47:24.669Z,100358.81
2023-04-25T02:49:51.324Z,100368.25
2023-04-25T02:52:17.685Z,100406.97
2023-04-25T02:54:44.106Z,100403.50
2023-04-25T02:57:10.457Z,100376.63
2023-04-25T02:59:36.882Z,100348.22
2023-04-25T03:02:03.279Z,100297.56
2023-04-25T03:04:29.752Z,100366.47
2023-04-25T03:06:56.510Z,100375.91
2023-04-25T03:09:22.893Z,100314.03
2023-04-25T03:11:49.299Z,100376.84
2023-04-25T03:14:16.128Z,100274.53
2023-04-25T03:16:42.538Z,100396.84
2023-04-25T03:19:08.947Z,100385.50
2023-04-25T03:21:36.632Z,100345.16
2023-04-25T03:24:05.115Z,100406.25
2023-04-25T03:26:31.643Z,100376.09
2023-04-25T03:28:57.983Z,100426.22
2023-04-25T03:31:24.448Z,100376.06
2023-04-25T03:33:51.057Z,100343.38
2023-04-25T03:36:17.739Z,100368.28
2023-04-25T03:38:44.090Z,100422.66
2023-04-25T03:41:10.582Z,100364.88
2023-04-25T03:43:37.023Z,100301.16
2023-04-25T03:46:03.514Z,100309.88
2023-04-25T03:48:29.930Z,100286.59
2023-04-25T03:50:56.336Z,100414.00
2023-04-25T03:53:22.740Z,100396.91
2023-04-25T03:55:49.150Z,100296.25
2023-04-25T03:58:15.504Z,100399.41
2023-04-25T04:00:41.846Z,100383.22
2023-04-25T04:03:08.344Z,100429.66
2023-04-25T04:05:35.010Z,100361.78
2023-04-25T04:08:01.441Z,100415.88
2023-04-25T04:10:27.859Z,100410.72
2023-04-25T04:12:54.204Z,100383.38
2023-04-25T04:15:20.691Z,100300.63
2023-04-25T04:17:47.884Z,100402.22
2023-04-25T04:20:14.563Z,100429.59
2023-04-25T04:22:40.948Z,100436.50
2023-04-25T04:25:07.943Z,100451.13
2023-04-25T04:27:35.295Z,100404.56
2023-04-25T04:30:02.715Z,100421.13
2023-04-25T04:32:31.372Z,100417.59
2023-04-25T04:34:58.154Z,100367.88
2023-04-25T04:37:24.982Z,100428.81
2023-04-25T04:39:51.398Z,100446.97
2023-04-25T04:42:18.083Z,100439.09
2023-04-25T04:44:45.619Z,100436.41
2023-04-25T04:47:13.579Z,100439.97
2023-04-25T04:49:39.902Z,100411.50
2023-04-25T04:52:06.467Z,100457.25
2023-04-25T04:54:32.853Z,100500.44
2023-04-25T04:56:59.552Z,100407.38
2023-04-25T04:59:25.897Z,100448.72
2023-04-25T05:01:53.786Z,100460.63
2023-04-25T05:04:20.186Z,100474.72
2023-04-25T05:06:48.806Z,100382.53
2023-04-25T05:09:16.175Z,100453.94
2023-04-25T05:11:42.519Z,100417.69
2023-04-25T05:14:08.868Z,100372.97
2023-04-25T05:16:35.843Z,100472.06
2023-04-25T05:19:02.309Z,100474.81
2023-04-25T05:21:29.161Z,100384.47
2023-04-25T05:23:55.505Z,100491.06
2023-04-25T05:26:21.862Z,100474.78
2023-04-25T05:28:48.255Z,100504.06
2023-04-25T05:31:14.617Z,100422.91
2023-04-25T05:33:40.983Z,100527.19
2023-04-25T05:36:07.988Z,100520.97
2023-04-25T05:38:35.088Z,100487.94
2023-04-25T05:41:01.780Z,100365.63
2023-04-25T05:43:30.538Z,100488.91
2023-04-25T05:45:56.964Z,100488.03
2023-04-25T05:48:23.337Z,100499.97
2023-04-25T05:50:49.761Z,100400.88
2023-04-25T05:53:16.217Z,100449.94
2023-04-25T05:55:42.630Z,100531.91
2023-04-25T05:58:09.004Z,100504.31
2023-04-25T06:00:35.421Z,100509.47
2023-04-25T06:03:02.350Z,100515.34
2023-04-25T06:05:28.909Z,100418.16
2023-04-25T06:07:55.521Z,100547.75
2023-04-25T06:10:22.387Z,100432.53
2023-04-25T06:12:49.064Z,100425.63
2023-04-25T06:15:27.974Z,100535.88
2023-04-25T06:17:55.410Z,100565.06
2023-04-25T06:20:25.081Z,100541.19
2023-04-25T06:22:54.807Z,100556.41
2023-04-25T06:25:21.257Z,100557.09
2023-04-25T06:27:47.659Z,100568.53
2023-04-25T06:30:14.148Z,100442.63
2023-04-25T06:32:40.764Z,100570.97
2023-04-25T06:35:07.592Z,100552.38
2023-04-25T06:37:34.006Z,100546.03
2023-04-25T06:40:00.406Z,100510.28
2023-04-25T06:42:26.736Z,100507.38
2023-04-25T06:44:53.158Z,100467.97
2023-04-25T06:47:19.502Z,100553.28
2023-04-25T06:49:45.893Z,100562.78
2023-04-25T06:52:12.244Z,100553.81
2023-04-25T06:54:38.688Z,100424.75
2023-04-25T06:57:05.324Z,100466.88
2023-04-25T06:59:31.761Z,100568.28
2023-04-25T07:01:58.148Z,100581.81
2023-04-25T07:04:24.646Z,100573.66
2023-04-25T07:06:51.398Z,100572.50
2023-04-25T07:09:18.024Z,100574.75
2023-04-25T07:11:44.509Z,100566.31
2023-04-25T07:14:10.860Z,100566.75
2023-04-25T07:16:37.534Z,100596.94
2023-04-25T07:19:06.976Z,100582.59
2023-04-25T07:21:33.763Z,100571.34
2023-04-25T07:24:00.125Z,100498.91
2023-04-25T07:26:26.754Z,100608.34
2023-04-25T07:28:53.177Z,100595.69
2023-04-25T07:31:19.623Z,100488.66
2023-04-25T07:33:46.790Z,100502.25
2023-04-25T07:36:13.552Z,100587.13
2023-04-25T07:38:40.270Z,100547.56
2023-04-25T07:41:06.682Z,100616.38
2023-04-25T07:43:35.588Z,100622.94
2023-04-25T07:46:02.049Z,100550.22
2023-04-25T07:48:28.602Z,100605.84
2023-04-25T07:50:55.747Z,100566.97
2023-04-25T07:53:22.292Z,100584.22
2023-04-25T07:55:48.684Z,100533.81
2023-04-25T07:58:16.261Z,100590.50
2023-04-25T08:00:43.157Z,100567.34
2023-04-25T08:03:10.731Z,100589.81
2023-04-25T08:05:37.300Z,100566.16
2023-04-25T08:08:04.059Z,100631.31
2023-04-25T08:10:30.476Z,100465.00
2023-04-25T08:12:56.981Z,100603.91
2023-04-25T08:15:23.346Z,100647.88
2023-04-25T08:17:49.750Z,100583.28
2023-04-25T08:20:16.412Z,100583.84
2023-04-25T08:22:43.182Z,100538.91
2023-04-25T08:25:09.545Z,100657.78
2023-04-25T08:27:36.014Z,100662.16
2023-04-25T08:30:04.142Z,100533.72
2023-04-25T08:32:31.048Z,100530.09
2023-04-25T08:34:57.750Z,100623.72
2023-04-25T08:37:24.231Z,100534.38
2023-04-25T08:39:53.329Z,100539.50
2023-04-25T08:42:22.069Z,100618.22
2023-04-25T08:44:49.585Z,100573.31
2023-04-25T08:47:16.479Z,100686.97
2023-04-25T08:49:47.086Z,100565.41
2023-04-25T08:52:14.478Z,100595.91
2023-04-25T08:54:47.202Z,100689.97
2023-04-25T08:57:14.531Z,100635.19
2023-04-25T08:59:45.278Z,100603.53
2023-04-25T09:02:15.428Z,100709.50
2023-04-25T09:04:46.406Z,100717.34
2023-04-25T09:07:12.953Z,100623.19
2023-04-25T09:09:40.300Z,100685.03
2023-04-25T09:12:07.051Z,100673.16
2023-04-25T09:14:33.502Z,100663.91
2023-04-25T09:17:01.863Z,100735.44
2023-04-25T09:19:41.060Z,100691.25
2023-04-25T09:22:09.072Z,100688.09
2023-04-25T09:24:38.643Z,100729.19
2023-04-25T09:27:19.635Z,100735.09
2023-04-25T09:29:47.397Z,100655.94
2023-04-25T09:32:20.146Z,100656.41
2023-04-25T09:34:54.150Z,100661.56
2023-04-25T09:37:23.511Z,100748.47
2023-04-25T09:39:53.654Z,100751.81
2023-04-25T09:42:23.384Z,100573.03
2023-04-25T09:44:49.768Z,100632.19
2023-04-25T09:47:18.601Z,100732.25
2023-04-25T09:49:45.247Z,100751.81
2023-04-25T09:52:17.747Z,100760.19
2023-04-25T09:54:45.907Z,100741.09
2023-04-25T09:57:15.284Z,100745.75
2023-04-25T09:59:47.461Z,100724.06
2023-04-25T10:02:16.488Z,100653.19
2023-04-25T10:04:45.979Z,100730.91
2023-04-25T10:07:12.957Z,100740.00
2023-04-25T10:09:40.831Z,100649.00
2023-04-25T10:12:08.750Z,100792.88
2023-04-25T10:14:36.002Z,100771.78
2023-04-25T10:17:02.882Z,100788.28
2023-04-25T10:19:30.549Z,100794.19
2023-04-25T10:22:05.366Z,100665.31
2023-04-25T10:24:34.032Z,100693.09
2023-04-25T10:27:00.775Z,100761.19
2023-04-25T10:29:27.476Z,100786.81
2023-04-25T10:31:54.337Z,100765.72
2023-04-25T10:34:25.977Z,100781.06
2023-04-25T10:36:53.205Z,100798.19
2023-04-25T10:39:28.330Z,100786.84
2023-04-25T10:41:57.746Z,100789.50
2023-04-25T10:44:27.156Z,100671.00
2023-04-25T10:46:55.635Z,100692.25
2023-04-25T10:49:36.139Z,100770.03
2023-04-25T10:52:28.639Z,100788.44
2023-04-25T10:54:57.163Z,100774.56
2023-04-25T10:57:47.254Z,100777.31
2023-04-25T11:00:19.471Z,100733.03
2023-04-25T11:02:48.745Z,100768.13
2023-04-25T11:05:36.397Z,100772.31
2023-04-25T11:08:08.438Z,100736.03
2023-04-25T11:10:36.473Z,100745.75
2023-04-25T11:13:03.693Z,100781.69
2023-04-25T11:15:30.582Z,100774.94
2023-04-25T11:17:56.945Z,100761.47
2023-04-25T11:20:27.003Z,100785.44
2023-04-25T11:22:53.535Z,100674.38
2023-04-25T11:25:21.061Z,100787.13
2023-04-25T11:27:54.952Z,100789.22
2023-04-25T11:30:22.333Z,100796.91
2023-04-25T11:32:49.247Z,100741.97
2023-04-25T11:35:16.447Z,100788.53
2023-04-25T11:37:44.862Z,100786.63
2023-04-25T11:40:14.415Z,100633.59
2023-04-25T11:42:45.291Z,100805.59
2023-04-25T11:45:12.426Z,100776.88
2023-04-25T11:47:38.916Z,100671.63
2023-04-25T11:50:08.430Z,100827.72
2023-04-25T11:52:43.988Z,100823.88
2023-04-25T11:55:14.283Z,100832.00
2023-04-25T11:57:42.066Z,100712.88
2023-04-25T12:00:17.493Z,100829.31
2023-04-25T12:02:47.301Z,100812.88
2023-04-25T12:05:31.337Z,100802.97
2023-04-25T12:08:09.973Z,100805.81
2023-04-25T12:10:41.792Z,100816.03
2023-04-25T12:13:21.260Z,100804.22
2023-04-25T12:15:47.832Z,100785.09
2023-04-25T12:18:14.425Z,100787.75
2023-04-25T12:20:42.562Z,100813.03
2023-04-25T12:23:09.195Z,100767.09
2023-04-25T12:25:40.963Z,100816.16
2023-04-25T12:28:21.397Z,100773.75
2023-04-25T12:30:58.919Z,100809.72
2023-04-25T12:33:27.701Z,100718.34
2023-04-25T12:35:54.931Z,100816.34
2023-04-25T12:38:30.256Z,100751.84
2023-04-25T12:40:57.247Z,100754.53
2023-04-25T12:43:24.038Z,100802.38
2023-04-25T12:45:55.273Z,100814.31
2023-04-25T12:48:22.769Z,100763.16
2023-04-25T12:50:51.555Z,100776.88
2023-04-25T12:53:19.812Z,100843.13
2023-04-25T12:55:49.162Z,100825.69
2023-04-25T12:58:16.456Z,100800.22
2023-04-25T13:00:43.092Z,100833.25
2023-04-25T13:03:11.751Z,100830.59
2023-04-25T13:05:39.362Z,100849.25
2023-04-25T13:08:07.424Z,100768.63
2023-04-25T13:10:40.606Z,100823.44
2023-04-25T13:13:07.004Z,100868.19
2023-04-25T13:15:33.476Z,100854.56
2023-04-25T13:17:59.918Z,100770.47
2023-04-25T13:20:26.317Z,100850.19
2023-04-25T13:22:52.897Z,100848.88
2023-04-25T13:25:19.792Z,100757.88
2023-04-25T13:27:47.321Z,100737.97
2023-04-25T13:30:14.060Z,100803.81
2023-04-25T13:32:41.002Z,100841.34
2023-04-25T13:35:12.535Z,100840.44
2023-04-25T13:37:39.636Z,100816.94
2023-04-25T13:40:11.057Z,100886.91
2023-04-25T13:42:38.381Z,100863.22
2023-04-25T13:45:05.289Z,100797.38
2023-04-25T13:47:31.953Z,100798.50
2023-04-25T13:49:58.464Z,100792.47
2023-04-25T13:52:25.261Z,100833.00
2023-04-25T13:54:52.137Z,100804.97
2023-04-25T13:57:19.175Z,100738.72
2023-04-25T13:59:45.784Z,100797.50
2023-04-25T14:02:12.184Z,100792.91
2023-04-25T14:04:38.817Z,100834.28
2023-04-25T14:07:05.930Z,100882.81
2023-04-25T14:09:32.426Z,100861.38
2023-04-25T14:11:58.869Z,100873.59
2023-04-25T14:14:25.543Z,100675.94
2023-04-25T14:16:54.693Z,100873.63
2023-04-25T14:19:22.497Z,100843.19
2023-04-25T14:21:49.025Z,100757.34
2023-04-25T14:24:17.357Z,100791.91
2023-04-25T14:26:44.687Z,100754.66
2023-04-25T14:29:12.826Z,100847.97
2023-04-25T14:31:41.299Z,100865.94
2023-04-25T14:34:08.099Z,100807.78
2023-04-25T14:36:35.204Z,100866.16
2023-04-25T14:39:01.892Z,100799.19
2023-04-25T14:41:28.746Z,100851.78
2023-04-25T14:43:56.497Z,100774.31
2023-04-25T14:46:24.365Z,100820.41
2023-04-25T14:48:51.204Z,100793.63
2023-04-25T14:51:17.586Z,100806.22
2023-04-25T14:53:44.053Z,100849.09
2023-04-25T14:56:10.704Z,100856.66
2023-04-25T14:58:37.168Z,100807.44
2023-04-25T15:01:03.748Z,100814.81
2023-04-25T15:03:30.419Z,100726.19
2023-04-25T15:05:56.911Z,100744.28
2023-04-25T15:08:23.308Z,100871.84
2023-04-25T15:10:50.023Z,100830.63
2023-04-25T15:13:18.230Z,100862.56
2023-04-25T15:15:44.692Z,100782.59
2023-04-25T15:18:12.782Z,100778.22
2023-04-25T15:20:39.321Z,100826.97
2023-04-25T15:23:05.994Z,100796.50
2023-04-25T15:25:34.132Z,100800.88
2023-04-25T15:28:01.012Z,100844.25
2023-04-25T15:30:34.131Z,100699.84
2023-04-25T15:33:00.838Z,100702.13
2023-04-25T15:35:28.602Z,100752.84
2023-04-25T15:37:55.044Z,100806.94
2023-04-25T15:40:22.138Z,100821.47
2023-04-25T15:42:51.672Z,100886.50
2023-04-25T15:45:24.138Z,100771.59
2023-04-25T15:47:55.378Z,100771.25
2023-04-25T15:50:22.195Z,100828.31
2023-04-25T15:52:49.796Z,100800.72
2023-04-25T15:55:17.411Z,100798.22
2023-04-25T15:57:43.967Z,100764.69
2023-04-25T16:00:13.204Z,100897.16
2023-04-25T16:02:41.180Z,100818.19
2023-04-25T16:05:09.105Z,100899.88
2023-04-25T16:07:35.718Z,100879.47
2023-04-25T16:10:02.278Z,100867.69
2023-04-25T16:12:30.990Z,100905.66
2023-04-25T16:14:58.157Z,100830.19
2023-04-25T16:17:25.399Z,100849.22
2023-04-25T16:19:51.897Z,100841.72
2023-04-25T16:22:18.476Z,100858.63
2023-04-25T16:24:45.531Z,100783.47
2023-04-25T16:27:12.102Z,100887.13
2023-04-25T16:29:42.267Z,100869.50
2023-04-25T16:32:08.656Z,100814.75
2023-04-25T16:34:35.876Z,100841.53
2023-04-25T16:37:02.338Z,100795.25
2023-04-25T16:39:28.725Z,100861.28
2023-04-25T16:41:55.294Z,100879.63
2023-04-25T16:44:21.777Z,100843.53
2023-04-25T16:46:48.383Z,100798.19
2023-04-25T16:49:14.935Z,100898.25
2023-04-25T16:51:41.343Z,100898.63
2023-04-25T16:54:07.967Z,100831.91
2023-04-25T16:56:34.423Z,100828.84
2023-04-25T16:59:00.932Z,100867.59
2023-04-25T17:01:28.539Z,100767.63
2023-04-25T17:03:55.221Z,100801.84
2023-04-25T17:06:21.717Z,100886.09
2023-04-25T17:08:48.087Z,100917.31
2023-04-25T17:11:14.497Z,100926.66
2023-04-25T17:13:43.312Z,100931.59
2023-04-25T17:16:11.765Z,100932.56
2023-04-25T17:18:38.605Z,100911.94
2023-04-25T17:21:06.071Z,100874.34
2023-04-25T17:23:32.638Z,100919.81
2023-04-25T17:25:59.427Z,100822.78
2023-04-25T17:28:25.815Z,100916.16
2023-04-25T17:30:52.328Z,100929.19
2023-04-25T17:33:19.033Z,100907.91
2023-04-25T17:35:46.125Z,100833.13
2023-04-25T17:38:13.719Z,100945.31
2023-04-25T17:40:40.099Z,100874.00
2023-04-25T17:43:07.049Z,100905.69
2023-04-25T17:45:34.697Z,100851.44
2023-04-25T17:48:02.322Z,100934.09
2023-04-25T17:50:28.771Z,100938.50
2023-04-25T17:52:55.497Z,100951.81
2023-04-25T17:55:21.842Z,100953.31
2023-04-25T17:57:48.373Z,100925.88
2023-04-25T18:00:15.210Z,100922.75
2023-04-25T18:02:41.639Z,100925.81
2023-04-25T18:05:11.482Z,100967.41
2023-04-25T18:07:38.295Z,100950.44
2023-04-25T18:10:10.137Z,100895.34
2023-04-25T18:12:36.965Z,100858.47
2023-04-25T18:15:06.734Z,100972.38
2023-04-25T18:17:39.631Z,100961.97
2023-04-25T18:20:17.238Z,100985.16
2023-04-25T18:22:45.028Z,100880.28
2023-04-25T18:25:13.550Z,101002.16
2023-04-25T18:27:41.106Z,101005.63
2023-04-25T18:30:10.587Z,100990.88
2023-04-25T18:32:37.830Z,100980.09
2023-04-25T18:35:04.858Z,101018.06
2023-04-25T18:37:31.297Z,100945.50
2023-04-25T18:39:58.453Z,100984.81
2023-04-25T18:42:24.907Z,100937.59
2023-04-25T18:44:51.266Z,101040.50
2023-04-25T18:47:17.818Z,100960.66
2023-04-25T18:49:45.233Z,101005.53
2023-04-25T18:52:12.738Z,101000.56
2023-04-25T18:54:39.252Z,100990.44
2023-04-25T18:57:06.423Z,101039.63
2023-04-25T18:59:33.557Z,100978.44
2023-04-25T19:02:05.093Z,101051.19
2023-04-25T19:04:32.293Z,101016.38
2023-04-25T19:06:59.527Z,100937.88
2023-04-25T19:09:25.924Z,101027.81
2023-04-25T19:11:52.365Z,101019.38
2023-04-25T19:14:18.852Z,101061.03
2023-04-25T19:16:45.488Z,101020.53
2023-04-25T19:19:12.380Z,101064.53
2023-04-25T19:21:38.852Z,101065.47
2023-04-25T19:24:06.942Z,101081.66
2023-04-25T19:26:33.426Z,101062.03
2023-04-25T19:29:14.531Z,101047.22
2023-04-25T19:31:44.168Z,101086.88
2023-04-25T19:34:11.308Z,101093.25
2023-04-25T19:36:40.146Z,101078.69
2023-04-25T19:39:07.517Z,101099.53
2023-04-25T19:41:36.217Z,101095.22
2023-04-25T19:44:07.269Z,101045.69
2023-04-25T19:46:34.970Z,101094.78
2023-04-25T19:49:01.547Z,101070.59
2023-04-25T19:51:28.926Z,101030.16
2023-04-25T19:53:55.585Z,101083.03
2023-04-25T19:56:23.279Z,101106.19
2023-04-25T19:58:50.737Z,101064.56
2023-04-25T20:01:18.175Z,101107.72
2023-04-25T20:03:45.287Z,101094.69
2023-04-25T20:06:11.824Z,101035.78
2023-04-25T20:08:38.485Z,101089.50
2023-04-25T20:11:04.950Z,100974.72
2023-04-25T20:13:32.613Z,101089.72
2023-04-25T20:16:00.656Z,101097.56
2023-04-25T20:18:29.458Z,101093.38
2023-04-25T20:20:56.449Z,101042.44
2023-04-25T20:23:22.835Z,101125.44
2023-04-25T20:25:49.173Z,101102.91
2023-04-25T20:28:15.855Z,101097.53
2023-04-25T20:30:42.337Z,101059.38
2023-04-25T20:33:09.294Z,101014.50
2023-04-25T20:35:36.846Z,101106.28
2023-04-25T20:38:03.281Z,101024.13
2023-04-25T20:40:29.761Z,101108.22
2023-04-25T20:42:56.457Z,101067.97
2023-04-25T20:45:24.235Z,101113.34
2023-04-25T20:47:50.746Z,101062.31
2023-04-25T20:50:17.391Z,101065.72
2023-04-25T20:52:44.419Z,101097.16
2023-04-25T20:55:11.800Z,101116.41
2023-04-25T20:57:38.266Z,101095.13
2023-04-25T21:00:15.360Z,101125.59
2023-04-25T21:02:42.173Z,101027.94
2023-04-25T21:05:09.540Z,101029.81
2023-04-25T21:07:36.552Z,101127.72
2023-04-25T21:10:03.060Z,101064.50
2023-04-25T21:12:29.514Z,101127.50
2023-04-25T21:14:56.318Z,101153.31
2023-04-25T21:17:22.937Z,101121.97
2023-04-25T21:19:49.434Z,101102.91
2023-04-25T21:22:15.814Z,101140.97
2023-04-25T21:24:42.133Z,100996.38
2023-04-25T21:27:08.816Z,101038.91
2023-04-25T21:29:35.284Z,101110.59
2023-04-25T21:32:02.103Z,101130.56
2023-04-25T21:34:28.468Z,101137.47
2023-04-25T21:36:54.828Z,101134.91
2023-04-25T21:39:21.197Z,101116.72
2023-04-25T21:41:48.282Z,101123.69
2023-04-25T21:44:15.531Z,101134.13
2023-04-25T21:46:42.848Z,101120.41
2023-04-25T21:49:09.312Z,101128.22
2023-04-25T21:51:35.967Z,101125.69
2023-04-25T21:54:05.189Z,101108.56
2023-04-25T21:56:32.694Z,101115.69
2023-04-25T21:58:59.049Z,101105.44
2023-04-25T22:01:26.756Z,101106.44
2023-04-25T22:03:53.602Z,101066.69
2023-04-25T22:06:20.111Z,101058.78
2023-04-25T22:08:46.508Z,101116.78
2023-04-25T22:11:13.603Z,101166.06
2023-04-25T22:13:39.968Z,101078.56
2023-04-25T22:16:06.549Z,101055.25
2023-04-25T22:18:32.977Z,101156.53
2023-04-25T22:20:59.390Z,101160.03
2023-04-25T22:23:25.749Z,101141.00
2023-04-25T22:25:52.113Z,101167.00
2023-04-25T22:28:18.637Z,101155.81
2023-04-25T22:30:45.052Z,101162.81
2023-04-25T22:33:11.644Z,101099.59
2023-04-25T22:35:38.051Z,101170.69
2023-04-25T22:38:04.439Z,101141.22
2023-04-25T22:40:30.936Z,101176.75
2023-04-25T22:42:57.817Z,101134.31
2023-04-25T22:45:24.422Z,101176.81
2023-04-25T22:47:50.857Z,101077.16
2023-04-25T22:50:17.760Z,101178.59
2023-04-25T22:52:44.140Z,101195.09
2023-04-25T22:55:12.340Z,101195.06
2023-04-25T22:57:39.500Z,101207.19
2023-04-25T23:00:19.939Z,101175.13
2023-04-25T23:02:47.221Z,101139.59
2023-04-25T23:05:14.747Z,101211.59
2023-04-25T23:07:42.176Z,101172.56
2023-04-25T23:10:08.936Z,101106.72
2023-04-25T23:12:35.471Z,101084.19
2023-04-25T23:15:04.202Z,101150.94
2023-04-25T23:17:30.744Z,101175.25
2023-04-25T23:19:57.605Z,101106.78
2023-04-25T23:22:24.525Z,101177.00
2023-04-25T23:24:51.174Z,101218.66
2023-04-25T23:27:17.693Z,101095.53
2023-04-25T23:29:44.135Z,101200.50
2023-04-25T23:32:10.476Z,101197.91
2023-04-25T23:34:37.483Z,101215.25
2023-04-25T23:37:04.436Z,101215.25
2023-04-25T23:39:31.058Z,101242.16
2023-04-25T23:41:57.684Z,101220.47
2023-04-25T23:44:24.006Z,101192.66
2023-04-25T23:46:50.418Z,101221.31
2023-04-25T23:49:16.847Z,101237.78
2023-04-25T23:51:43.265Z,101200.50
2023-04-25T23:54:09.639Z,101073.00
2023-04-25T23:56:36.066Z,101201.34
2023-04-25T23:59:02.467Z,101224.78
